sensor_id;sensor_type;location;lat;lon;timestamp;P1;durP1;ratioP1;P2;durP2;ratioP2
35699;SDS011;21818;51.078;12.108;2022-11-11T00:00:33;7.25;;;2.55;;
35699;SDS011;21818;51.078;12.108;2022-11-11T00:03:00;9.32;;;2.83;;
35699;SDS011;21818;51.078;12.108;2022-11-11T00:05:26;5.32;;;2.40;;
35699;SDS011;21818;51.078;12.108;2022-11-11T00:07:52;6.57;;;2.10;;
35699;SDS011;21818;51.078;12.108;2022-11-11T00:10:23;6.47;;;2.25;;
35699;SDS011;21818;51.078;12.108;2022-11-11T00:12:53;5.88;;;2.15;;
35699;SDS011;21818;51.078;12.108;2022-11-11T00:15:18;8.05;;;3.05;;
35699;SDS011;21818;51.078;12.108;2022-11-11T00:17:44;10.65;;;3.38;;
35699;SDS011;21818;51.078;12.108;2022-11-11T00:20:28;6.40;;;2.35;;
35699;SDS011;21818;51.078;12.108;2022-11-11T00:23:19;4.57;;;1.85;;
35699;SDS011;21818;51.078;12.108;2022-11-11T00:26:05;6.65;;;2.00;;
35699;SDS011;21818;51.078;12.108;2022-11-11T00:28:32;7.43;;;2.15;;
35699;SDS011;21818;51.078;12.108;2022-11-11T00:31:02;6.72;;;2.15;;
35699;SDS011;21818;51.078;12.108;2022-11-11T00:35:54;6.82;;;2.38;;
35699;SDS011;21818;51.078;12.108;2022-11-11T00:38:20;5.50;;;2.22;;
35699;SDS011;21818;51.078;12.108;2022-11-11T00:41:04;5.78;;;2.03;;
35699;SDS011;21818;51.078;12.108;2022-11-11T00:43:30;6.75;;;2.13;;
35699;SDS011;21818;51.078;12.108;2022-11-11T00:45:56;6.13;;;2.05;;
35699;SDS011;21818;51.078;12.108;2022-11-11T00:48:41;4.45;;;2.30;;
35699;SDS011;21818;51.078;12.108;2022-11-11T00:51:36;5.38;;;2.13;;
35699;SDS011;21818;51.078;12.108;2022-11-11T00:54:03;7.78;;;2.20;;
35699;SDS011;21818;51.078;12.108;2022-11-11T00:56:29;5.25;;;2.13;;
35699;SDS011;21818;51.078;12.108;2022-11-11T00:58:54;4.63;;;2.15;;
35699;SDS011;21818;51.078;12.108;2022-11-11T01:01:20;7.82;;;2.60;;
35699;SDS011;21818;51.078;12.108;2022-11-11T01:03:46;6.50;;;2.30;;
35699;SDS011;21818;51.078;12.108;2022-11-11T01:06:12;4.35;;;2.00;;
35699;SDS011;21818;51.078;12.108;2022-11-11T01:08:38;7.18;;;2.10;;
35699;SDS011;21818;51.078;12.108;2022-11-11T01:11:10;6.30;;;1.95;;
35699;SDS011;21818;51.078;12.108;2022-11-11T01:13:40;4.78;;;2.00;;
35699;SDS011;21818;51.078;12.108;2022-11-11T01:16:09;3.47;;;2.05;;
35699;SDS011;21818;51.078;12.108;2022-11-11T01:18:37;5.15;;;1.95;;
35699;SDS011;21818;51.078;12.108;2022-11-11T01:21:03;5.45;;;2.25;;
35699;SDS011;21818;51.078;12.108;2022-11-11T01:23:30;7.25;;;2.17;;
35699;SDS011;21818;51.078;12.108;2022-11-11T01:26:01;4.72;;;2.60;;
35699;SDS011;21818;51.078;12.108;2022-11-11T01:28:29;8.40;;;2.13;;
35699;SDS011;21818;51.078;12.108;2022-11-11T01:30:59;4.13;;;2.65;;
35699;SDS011;21818;51.078;12.108;2022-11-11T01:33:26;7.85;;;2.28;;
35699;SDS011;21818;51.078;12.108;2022-11-11T01:35:52;6.40;;;2.25;;
35699;SDS011;21818;51.078;12.108;2022-11-11T01:38:17;4.85;;;1.90;;
35699;SDS011;21818;51.078;12.108;2022-11-11T01:40:44;4.00;;;1.80;;
35699;SDS011;21818;51.078;12.108;2022-11-11T01:48:32;6.82;;;1.77;;
35699;SDS011;21818;51.078;12.108;2022-11-11T01:51:33;3.92;;;1.85;;
35699;SDS011;21818;51.078;12.108;2022-11-11T01:54:06;4.18;;;1.92;;
35699;SDS011;21818;51.078;12.108;2022-11-11T01:56:36;7.00;;;2.15;;
35699;SDS011;21818;51.078;12.108;2022-11-11T01:59:04;6.20;;;2.05;;
35699;SDS011;21818;51.078;12.108;2022-11-11T02:01:34;6.38;;;2.03;;
35699;SDS011;21818;51.078;12.108;2022-11-11T02:04:00;6.32;;;2.78;;
35699;SDS011;21818;51.078;12.108;2022-11-11T02:06:51;6.30;;;2.05;;
35699;SDS011;21818;51.078;12.108;2022-11-11T02:09:18;5.80;;;1.83;;
35699;SDS011;21818;51.078;12.108;2022-11-11T02:11:46;7.38;;;2.65;;
35699;SDS011;21818;51.078;12.108;2022-11-11T02:14:33;5.43;;;2.03;;
35699;SDS011;21818;51.078;12.108;2022-11-11T02:17:10;4.90;;;2.00;;
35699;SDS011;21818;51.078;12.108;2022-11-11T02:19:58;6.72;;;1.95;;
35699;SDS011;21818;51.078;12.108;2022-11-11T02:25:13;6.47;;;1.98;;
35699;SDS011;21818;51.078;12.108;2022-11-11T02:27:44;8.00;;;2.35;;
35699;SDS011;21818;51.078;12.108;2022-11-11T02:30:14;6.00;;;1.88;;
35699;SDS011;21818;51.078;12.108;2022-11-11T02:32:41;4.38;;;2.03;;
35699;SDS011;21818;51.078;12.108;2022-11-11T02:35:12;5.60;;;2.25;;
35699;SDS011;21818;51.078;12.108;2022-11-11T02:37:43;6.63;;;2.38;;
35699;SDS011;21818;51.078;12.108;2022-11-11T02:40:16;3.00;;;1.63;;
35699;SDS011;21818;51.078;12.108;2022-11-11T02:42:47;5.63;;;1.80;;
35699;SDS011;21818;51.078;12.108;2022-11-11T02:45:13;6.15;;;2.00;;
35699;SDS011;21818;51.078;12.108;2022-11-11T02:47:38;6.22;;;1.90;;
35699;SDS011;21818;51.078;12.108;2022-11-11T02:50:04;6.70;;;2.00;;
35699;SDS011;21818;51.078;12.108;2022-11-11T02:52:30;4.75;;;1.83;;
35699;SDS011;21818;51.078;12.108;2022-11-11T02:54:57;6.75;;;2.05;;
35699;SDS011;21818;51.078;12.108;2022-11-11T02:57:22;4.50;;;1.88;;
35699;SDS011;21818;51.078;12.108;2022-11-11T02:59:49;4.72;;;1.92;;
35699;SDS011;21818;51.078;12.108;2022-11-11T03:02:15;5.03;;;2.45;;
35699;SDS011;21818;51.078;12.108;2022-11-11T03:04:40;3.97;;;1.52;;
35699;SDS011;21818;51.078;12.108;2022-11-11T03:07:06;7.90;;;2.00;;
35699;SDS011;21818;51.078;12.108;2022-11-11T03:09:31;5.55;;;1.83;;
35699;SDS011;21818;51.078;12.108;2022-11-11T03:11:57;5.45;;;1.80;;
35699;SDS011;21818;51.078;12.108;2022-11-11T03:14:23;5.90;;;1.92;;
35699;SDS011;21818;51.078;12.108;2022-11-11T03:16:49;6.45;;;1.60;;
35699;SDS011;21818;51.078;12.108;2022-11-11T03:19:33;5.10;;;2.00;;
35699;SDS011;21818;51.078;12.108;2022-11-11T03:21:59;4.47;;;1.88;;
35699;SDS011;21818;51.078;12.108;2022-11-11T03:24:25;5.72;;;2.05;;
35699;SDS011;21818;51.078;12.108;2022-11-11T03:27:11;4.57;;;1.63;;
35699;SDS011;21818;51.078;12.108;2022-11-11T03:29:37;2.63;;;1.60;;
35699;SDS011;21818;51.078;12.108;2022-11-11T03:32:03;3.88;;;1.90;;
35699;SDS011;21818;51.078;12.108;2022-11-11T03:34:29;5.68;;;1.75;;
35699;SDS011;21818;51.078;12.108;2022-11-11T03:36:54;6.75;;;1.90;;
35699;SDS011;21818;51.078;12.108;2022-11-11T03:39:38;3.42;;;1.40;;
35699;SDS011;21818;51.078;12.108;2022-11-11T03:42:04;4.03;;;1.65;;
35699;SDS011;21818;51.078;12.108;2022-11-11T03:44:30;4.18;;;1.77;;
35699;SDS011;21818;51.078;12.108;2022-11-11T03:46:55;5.95;;;1.80;;
35699;SDS011;21818;51.078;12.108;2022-11-11T03:49:21;10.88;;;1.85;;
35699;SDS011;21818;51.078;12.108;2022-11-11T03:51:46;6.95;;;1.58;;
35699;SDS011;21818;51.078;12.108;2022-11-11T03:54:12;9.45;;;1.67;;
35699;SDS011;21818;51.078;12.108;2022-11-11T03:56:37;5.90;;;1.35;;
35699;SDS011;21818;51.078;12.108;2022-11-11T03:59:03;4.97;;;2.15;;
35699;SDS011;21818;51.078;12.108;2022-11-11T04:01:29;6.35;;;2.28;;
35699;SDS011;21818;51.078;12.108;2022-11-11T04:04:13;4.70;;;1.60;;
35699;SDS011;21818;51.078;12.108;2022-11-11T04:06:57;4.70;;;1.80;;
35699;SDS011;21818;51.078;12.108;2022-11-11T04:09:41;6.05;;;1.70;;
35699;SDS011;21818;51.078;12.108;2022-11-11T04:12:24;3.50;;;1.52;;
35699;SDS011;21818;51.078;12.108;2022-11-11T04:14:52;6.47;;;1.70;;
35699;SDS011;21818;51.078;12.108;2022-11-11T04:17:37;9.18;;;1.83;;
35699;SDS011;21818;51.078;12.108;2022-11-11T04:20:02;5.30;;;1.80;;
35699;SDS011;21818;51.078;12.108;2022-11-11T04:22:47;5.80;;;1.67;;
35699;SDS011;21818;51.078;12.108;2022-11-11T04:25:12;4.60;;;2.00;;
35699;SDS011;21818;51.078;12.108;2022-11-11T04:27:57;4.85;;;1.92;;
35699;SDS011;21818;51.078;12.108;2022-11-11T04:30:41;5.35;;;2.53;;
35699;SDS011;21818;51.078;12.108;2022-11-11T04:33:07;4.65;;;1.80;;
35699;SDS011;21818;51.078;12.108;2022-11-11T04:35:33;5.45;;;1.77;;
35699;SDS011;21818;51.078;12.108;2022-11-11T04:37:59;4.55;;;1.77;;
35699;SDS011;21818;51.078;12.108;2022-11-11T04:40:44;4.45;;;1.52;;
35699;SDS011;21818;51.078;12.108;2022-11-11T04:43:28;4.20;;;1.45;;
35699;SDS011;21818;51.078;12.108;2022-11-11T04:45:59;6.32;;;1.70;;
35699;SDS011;21818;51.078;12.108;2022-11-11T04:48:25;4.90;;;1.60;;
35699;SDS011;21818;51.078;12.108;2022-11-11T04:50:51;5.60;;;1.85;;
35699;SDS011;21818;51.078;12.108;2022-11-11T04:53:17;5.38;;;1.63;;
35699;SDS011;21818;51.078;12.108;2022-11-11T04:55:43;6.32;;;1.42;;
35699;SDS011;21818;51.078;12.108;2022-11-11T04:58:29;4.95;;;1.52;;
35699;SDS011;21818;51.078;12.108;2022-11-11T05:00:56;3.83;;;1.52;;
35699;SDS011;21818;51.078;12.108;2022-11-11T05:03:22;4.50;;;1.20;;
35699;SDS011;21818;51.078;12.108;2022-11-11T05:05:58;4.15;;;1.35;;
35699;SDS011;21818;51.078;12.108;2022-11-11T05:08:43;6.20;;;1.55;;
35699;SDS011;21818;51.078;12.108;2022-11-11T05:13:55;4.07;;;1.42;;
35699;SDS011;21818;51.078;12.108;2022-11-11T05:16:45;4.13;;;1.27;;
35699;SDS011;21818;51.078;12.108;2022-11-11T05:19:33;2.65;;;1.33;;
35699;SDS011;21818;51.078;12.108;2022-11-11T05:22:18;5.05;;;1.50;;
35699;SDS011;21818;51.078;12.108;2022-11-11T05:24:47;4.60;;;1.48;;
35699;SDS011;21818;51.078;12.108;2022-11-11T05:27:31;6.18;;;1.70;;
35699;SDS011;21818;51.078;12.108;2022-11-11T05:29:57;5.60;;;2.00;;
35699;SDS011;21818;51.078;12.108;2022-11-11T05:32:23;4.93;;;1.52;;
35699;SDS011;21818;51.078;12.108;2022-11-11T05:34:48;3.72;;;1.77;;
35699;SDS011;21818;51.078;12.108;2022-11-11T05:37:14;5.30;;;1.52;;
35699;SDS011;21818;51.078;12.108;2022-11-11T05:39:41;5.07;;;1.83;;
35699;SDS011;21818;51.078;12.108;2022-11-11T05:42:07;5.00;;;2.10;;
35699;SDS011;21818;51.078;12.108;2022-11-11T05:44:33;5.10;;;1.70;;
35699;SDS011;21818;51.078;12.108;2022-11-11T05:46:58;4.50;;;1.58;;
35699;SDS011;21818;51.078;12.108;2022-11-11T05:49:24;8.38;;;1.50;;
35699;SDS011;21818;51.078;12.108;2022-11-11T05:51:50;4.93;;;1.58;;
35699;SDS011;21818;51.078;12.108;2022-11-11T05:54:25;5.70;;;1.75;;
35699;SDS011;21818;51.078;12.108;2022-11-11T05:56:51;3.85;;;1.40;;
35699;SDS011;21818;51.078;12.108;2022-11-11T05:59:16;5.32;;;1.35;;
35699;SDS011;21818;51.078;12.108;2022-11-11T06:01:42;3.80;;;1.45;;
35699;SDS011;21818;51.078;12.108;2022-11-11T06:04:08;2.67;;;1.30;;
35699;SDS011;21818;51.078;12.108;2022-11-11T06:06:34;3.08;;;1.27;;
35699;SDS011;21818;51.078;12.108;2022-11-11T06:09:01;4.00;;;1.40;;
35699;SDS011;21818;51.078;12.108;2022-11-11T06:11:27;3.67;;;1.40;;
35699;SDS011;21818;51.078;12.108;2022-11-11T06:13:53;3.90;;;1.20;;
35699;SDS011;21818;51.078;12.108;2022-11-11T06:16:20;6.70;;;1.58;;
35699;SDS011;21818;51.078;12.108;2022-11-11T06:18:46;6.07;;;1.40;;
35699;SDS011;21818;51.078;12.108;2022-11-11T06:21:11;7.88;;;1.45;;
35699;SDS011;21818;51.078;12.108;2022-11-11T06:23:37;7.05;;;1.42;;
35699;SDS011;21818;51.078;12.108;2022-11-11T06:26:03;5.07;;;2.28;;
35699;SDS011;21818;51.078;12.108;2022-11-11T06:28:49;3.33;;;1.58;;
35699;SDS011;21818;51.078;12.108;2022-11-11T06:31:17;7.18;;;1.60;;
35699;SDS011;21818;51.078;12.108;2022-11-11T06:33:44;6.57;;;1.58;;
35699;SDS011;21818;51.078;12.108;2022-11-11T06:36:10;7.38;;;1.63;;
35699;SDS011;21818;51.078;12.108;2022-11-11T06:38:38;6.03;;;1.65;;
35699;SDS011;21818;51.078;12.108;2022-11-11T06:41:07;4.97;;;1.88;;
35699;SDS011;21818;51.078;12.108;2022-11-11T06:43:34;7.65;;;2.00;;
35699;SDS011;21818;51.078;12.108;2022-11-11T06:46:00;24.08;;;3.08;;
35699;SDS011;21818;51.078;12.108;2022-11-11T06:48:27;3.75;;;1.70;;
35699;SDS011;21818;51.078;12.108;2022-11-11T06:50:53;5.82;;;1.67;;
35699;SDS011;21818;51.078;12.108;2022-11-11T06:53:24;9.05;;;1.60;;
35699;SDS011;21818;51.078;12.108;2022-11-11T06:55:52;3.75;;;1.40;;
35699;SDS011;21818;51.078;12.108;2022-11-11T06:58:18;5.88;;;1.30;;
35699;SDS011;21818;51.078;12.108;2022-11-11T07:00:45;4.70;;;1.50;;
35699;SDS011;21818;51.078;12.108;2022-11-11T07:03:12;5.80;;;1.50;;
35699;SDS011;21818;51.078;12.108;2022-11-11T07:05:40;5.50;;;1.45;;
35699;SDS011;21818;51.078;12.108;2022-11-11T07:08:08;8.40;;;1.55;;
35699;SDS011;21818;51.078;12.108;2022-11-11T07:10:36;4.18;;;1.70;;
35699;SDS011;21818;51.078;12.108;2022-11-11T07:13:03;5.55;;;1.67;;
35699;SDS011;21818;51.078;12.108;2022-11-11T07:15:30;6.18;;;1.80;;
35699;SDS011;21818;51.078;12.108;2022-11-11T07:17:56;12.15;;;1.50;;
35699;SDS011;21818;51.078;12.108;2022-11-11T07:20:21;5.43;;;1.80;;
35699;SDS011;21818;51.078;12.108;2022-11-11T07:22:47;5.03;;;1.30;;
35699;SDS011;21818;51.078;12.108;2022-11-11T07:25:13;2.95;;;1.15;;
35699;SDS011;21818;51.078;12.108;2022-11-11T07:27:39;5.90;;;1.80;;
35699;SDS011;21818;51.078;12.108;2022-11-11T07:30:06;5.90;;;2.15;;
35699;SDS011;21818;51.078;12.108;2022-11-11T07:32:33;9.10;;;2.17;;
35699;SDS011;21818;51.078;12.108;2022-11-11T07:34:59;8.60;;;1.75;;
35699;SDS011;21818;51.078;12.108;2022-11-11T07:37:25;7.43;;;1.42;;
35699;SDS011;21818;51.078;12.108;2022-11-11T07:39:50;11.30;;;1.55;;
35699;SDS011;21818;51.078;12.108;2022-11-11T07:42:16;4.63;;;1.08;;
35699;SDS011;21818;51.078;12.108;2022-11-11T07:44:41;3.20;;;1.27;;
35699;SDS011;21818;51.078;12.108;2022-11-11T07:47:07;6.88;;;1.48;;
35699;SDS011;21818;51.078;12.108;2022-11-11T07:49:33;6.97;;;1.65;;
35699;SDS011;21818;51.078;12.108;2022-11-11T07:51:58;2.95;;;1.25;;
35699;SDS011;21818;51.078;12.108;2022-11-11T07:54:24;2.40;;;1.30;;
35699;SDS011;21818;51.078;12.108;2022-11-11T07:56:50;2.75;;;1.10;;
35699;SDS011;21818;51.078;12.108;2022-11-11T07:59:15;5.15;;;1.42;;
35699;SDS011;21818;51.078;12.108;2022-11-11T08:01:41;3.75;;;1.17;;
35699;SDS011;21818;51.078;12.108;2022-11-11T08:04:07;9.20;;;1.25;;
35699;SDS011;21818;51.078;12.108;2022-11-11T08:06:33;4.35;;;1.95;;
35699;SDS011;21818;51.078;12.108;2022-11-11T08:08:58;4.35;;;1.10;;
35699;SDS011;21818;51.078;12.108;2022-11-11T08:11:24;6.70;;;1.83;;
35699;SDS011;21818;51.078;12.108;2022-11-11T08:14:08;12.30;;;1.20;;
35699;SDS011;21818;51.078;12.108;2022-11-11T08:16:34;3.47;;;1.35;;
35699;SDS011;21818;51.078;12.108;2022-11-11T08:19:00;4.63;;;1.38;;
35699;SDS011;21818;51.078;12.108;2022-11-11T08:21:25;4.88;;;1.40;;
35699;SDS011;21818;51.078;12.108;2022-11-11T08:23:51;3.75;;;1.52;;
35699;SDS011;21818;51.078;12.108;2022-11-11T08:26:18;2.90;;;0.88;;
35699;SDS011;21818;51.078;12.108;2022-11-11T08:28:45;2.10;;;0.90;;
35699;SDS011;21818;51.078;12.108;2022-11-11T08:31:12;3.47;;;1.25;;
35699;SDS011;21818;51.078;12.108;2022-11-11T08:33:38;3.92;;;1.15;;
35699;SDS011;21818;51.078;12.108;2022-11-11T08:36:04;5.78;;;2.08;;
35699;SDS011;21818;51.078;12.108;2022-11-11T08:38:31;5.60;;;1.48;;
35699;SDS011;21818;51.078;12.108;2022-11-11T08:41:01;4.65;;;1.73;;
35699;SDS011;21818;51.078;12.108;2022-11-11T08:43:28;6.15;;;1.30;;
35699;SDS011;21818;51.078;12.108;2022-11-11T08:45:58;4.68;;;1.55;;
35699;SDS011;21818;51.078;12.108;2022-11-11T08:48:25;4.55;;;1.20;;
35699;SDS011;21818;51.078;12.108;2022-11-11T08:50:51;3.08;;;1.33;;
35699;SDS011;21818;51.078;12.108;2022-11-11T08:53:17;4.35;;;1.20;;
35699;SDS011;21818;51.078;12.108;2022-11-11T08:55:43;1.98;;;1.10;;
35699;SDS011;21818;51.078;12.108;2022-11-11T08:58:09;4.85;;;1.10;;
35699;SDS011;21818;51.078;12.108;2022-11-11T09:00:35;5.63;;;1.20;;
35699;SDS011;21818;51.078;12.108;2022-11-11T09:03:09;2.95;;;1.10;;
35699;SDS011;21818;51.078;12.108;2022-11-11T09:05:39;4.32;;;1.13;;
35699;SDS011;21818;51.078;12.108;2022-11-11T09:08:06;3.35;;;1.00;;
35699;SDS011;21818;51.078;12.108;2022-11-11T09:10:33;3.53;;;1.50;;
35699;SDS011;21818;51.078;12.108;2022-11-11T09:13:00;4.13;;;1.10;;
35699;SDS011;21818;51.078;12.108;2022-11-11T09:15:26;2.70;;;1.17;;
35699;SDS011;21818;51.078;12.108;2022-11-11T09:17:52;3.15;;;1.30;;
35699;SDS011;21818;51.078;12.108;2022-11-11T09:20:18;4.55;;;2.13;;
35699;SDS011;21818;51.078;12.108;2022-11-11T09:22:44;3.33;;;1.25;;
35699;SDS011;21818;51.078;12.108;2022-11-11T09:25:11;3.42;;;1.15;;
35699;SDS011;21818;51.078;12.108;2022-11-11T09:27:36;6.22;;;1.08;;
35699;SDS011;21818;51.078;12.108;2022-11-11T09:30:03;3.08;;;1.20;;
35699;SDS011;21818;51.078;12.108;2022-11-11T09:32:30;2.58;;;1.10;;
35699;SDS011;21818;51.078;12.108;2022-11-11T09:34:56;1.17;;;1.00;;
35699;SDS011;21818;51.078;12.108;2022-11-11T09:37:22;2.90;;;1.30;;
35699;SDS011;21818;51.078;12.108;2022-11-11T09:39:48;3.45;;;1.48;;
35699;SDS011;21818;51.078;12.108;2022-11-11T09:42:30;3.60;;;1.13;;
35699;SDS011;21818;51.078;12.108;2022-11-11T09:50:12;1.52;;;1.00;;
35699;SDS011;21818;51.078;12.108;2022-11-11T09:53:00;2.22;;;1.25;;
35699;SDS011;21818;51.078;12.108;2022-11-11T09:58:30;2.90;;;1.23;;
35699;SDS011;21818;51.078;12.108;2022-11-11T10:01:01;2.70;;;1.17;;
35699;SDS011;21818;51.078;12.108;2022-11-11T10:06:13;3.10;;;1.00;;
35699;SDS011;21818;51.078;12.108;2022-11-11T10:08:50;5.80;;;1.10;;
35699;SDS011;21818;51.078;12.108;2022-11-11T10:14:23;3.22;;;1.38;;
35699;SDS011;21818;51.078;12.108;2022-11-11T10:17:39;3.80;;;0.90;;
35699;SDS011;21818;51.078;12.108;2022-11-11T10:22:48;3.78;;;1.02;;
35699;SDS011;21818;51.078;12.108;2022-11-11T10:25:18;1.45;;;0.75;;
35699;SDS011;21818;51.078;12.108;2022-11-11T10:27:50;2.15;;;0.70;;
35699;SDS011;21818;51.078;12.108;2022-11-11T10:30:27;1.80;;;0.68;;
35699;SDS011;21818;51.078;12.108;2022-11-11T10:35:34;1.92;;;0.93;;
35699;SDS011;21818;51.078;12.108;2022-11-11T10:40:38;1.60;;;0.85;;
35699;SDS011;21818;51.078;12.108;2022-11-11T10:43:14;2.25;;;0.85;;
35699;SDS011;21818;51.078;12.108;2022-11-11T10:45:51;4.05;;;1.20;;
35699;SDS011;21818;51.078;12.108;2022-11-11T10:51:08;1.90;;;0.70;;
35699;SDS011;21818;51.078;12.108;2022-11-11T10:56:17;4.60;;;0.95;;
35699;SDS011;21818;51.078;12.108;2022-11-11T10:58:59;1.42;;;0.60;;
35699;SDS011;21818;51.078;12.108;2022-11-11T11:01:40;2.10;;;0.73;;
35699;SDS011;21818;51.078;12.108;2022-11-11T11:04:14;3.53;;;1.00;;
35699;SDS011;21818;51.078;12.108;2022-11-11T11:06:48;3.70;;;0.88;;
35699;SDS011;21818;51.078;12.108;2022-11-11T11:09:21;1.98;;;0.80;;
35699;SDS011;21818;51.078;12.108;2022-11-11T11:11:55;3.13;;;1.08;;
35699;SDS011;21818;51.078;12.108;2022-11-11T11:14:43;1.13;;;0.60;;
35699;SDS011;21818;51.078;12.108;2022-11-11T11:17:16;2.60;;;0.80;;
35699;SDS011;21818;51.078;12.108;2022-11-11T11:20:05;2.17;;;0.98;;
35699;SDS011;21818;51.078;12.108;2022-11-11T11:22:44;2.97;;;0.80;;
35699;SDS011;21818;51.078;12.108;2022-11-11T11:25:11;3.63;;;0.75;;
35699;SDS011;21818;51.078;12.108;2022-11-11T11:27:37;1.48;;;0.68;;
35699;SDS011;21818;51.078;12.108;2022-11-11T11:30:14;2.53;;;0.70;;
35699;SDS011;21818;51.078;12.108;2022-11-11T11:33:03;1.77;;;0.60;;
35699;SDS011;21818;51.078;12.108;2022-11-11T11:37:59;2.42;;;0.70;;
35699;SDS011;21818;51.078;12.108;2022-11-11T11:40:25;2.08;;;0.88;;
35699;SDS011;21818;51.078;12.108;2022-11-11T11:42:50;4.80;;;0.80;;
35699;SDS011;21818;51.078;12.108;2022-11-11T11:50:36;4.45;;;0.88;;
35699;SDS011;21818;51.078;12.108;2022-11-11T11:53:35;1.55;;;0.70;;
35699;SDS011;21818;51.078;12.108;2022-11-11T12:01:31;2.30;;;0.60;;
35699;SDS011;21818;51.078;12.108;2022-11-11T12:07:10;1.75;;;0.50;;
35699;SDS011;21818;51.078;12.108;2022-11-11T12:09:55;2.40;;;0.90;;
35699;SDS011;21818;51.078;12.108;2022-11-11T12:20:49;1.40;;;0.40;;
35699;SDS011;21818;51.078;12.108;2022-11-11T12:37:10;2.65;;;0.55;;
35699;SDS011;21818;51.078;12.108;2022-11-11T12:42:42;1.73;;;0.40;;
35699;SDS011;21818;51.078;12.108;2022-11-11T12:50:32;1.92;;;0.45;;
35699;SDS011;21818;51.078;12.108;2022-11-11T12:53:30;1.60;;;0.70;;
35699;SDS011;21818;51.078;12.108;2022-11-11T13:01:56;2.50;;;0.57;;
35699;SDS011;21818;51.078;12.108;2022-11-11T13:10:44;2.15;;;0.50;;
35699;SDS011;21818;51.078;12.108;2022-11-11T13:16:09;2.17;;;0.60;;
35699;SDS011;21818;51.078;12.108;2022-11-11T13:18:46;1.98;;;0.85;;
35699;SDS011;21818;51.078;12.108;2022-11-11T13:21:57;3.75;;;1.17;;
35699;SDS011;21818;51.078;12.108;2022-11-11T13:24:19;1.35;;;0.68;;
35699;SDS011;21818;51.078;12.108;2022-11-11T13:26:47;3.20;;;0.70;;
35699;SDS011;21818;51.078;12.108;2022-11-11T13:32:25;1.70;;;0.60;;
35699;SDS011;21818;51.078;12.108;2022-11-11T13:35:00;1.77;;;1.00;;
35699;SDS011;21818;51.078;12.108;2022-11-11T13:37:26;1.25;;;0.80;;
35699;SDS011;21818;51.078;12.108;2022-11-11T13:39:58;2.30;;;0.90;;
35699;SDS011;21818;51.078;12.108;2022-11-11T13:42:35;4.03;;;0.93;;
35699;SDS011;21818;51.078;12.108;2022-11-11T13:45:06;1.60;;;0.77;;
35699;SDS011;21818;51.078;12.108;2022-11-11T13:47:44;1.98;;;0.77;;
35699;SDS011;21818;51.078;12.108;2022-11-11T13:53:00;1.45;;;0.73;;
35699;SDS011;21818;51.078;12.108;2022-11-11T13:58:02;1.30;;;0.70;;
35699;SDS011;21818;51.078;12.108;2022-11-11T14:00:35;2.60;;;1.27;;
35699;SDS011;21818;51.078;12.108;2022-11-11T14:05:44;1.75;;;0.60;;
35699;SDS011;21818;51.078;12.108;2022-11-11T14:08:35;2.90;;;0.80;;
35699;SDS011;21818;51.078;12.108;2022-11-11T14:13:49;2.97;;;1.00;;
35699;SDS011;21818;51.078;12.108;2022-11-11T14:21:48;2.67;;;0.88;;
35699;SDS011;21818;51.078;12.108;2022-11-11T14:24:37;2.17;;;0.70;;
35699;SDS011;21818;51.078;12.108;2022-11-11T14:29:36;2.80;;;0.80;;
35699;SDS011;21818;51.078;12.108;2022-11-11T14:32:09;1.27;;;0.70;;
35699;SDS011;21818;51.078;12.108;2022-11-11T14:40:38;2.83;;;1.40;;
35699;SDS011;21818;51.078;12.108;2022-11-11T14:45:59;2.00;;;1.35;;
35699;SDS011;21818;51.078;12.108;2022-11-11T14:54:02;2.03;;;0.70;;
35699;SDS011;21818;51.078;12.108;2022-11-11T14:56:29;1.83;;;1.00;;
35699;SDS011;21818;51.078;12.108;2022-11-11T14:58:57;3.90;;;1.05;;
35699;SDS011;21818;51.078;12.108;2022-11-11T15:01:30;2.72;;;0.80;;
35699;SDS011;21818;51.078;12.108;2022-11-11T15:03:59;2.20;;;0.70;;
35699;SDS011;21818;51.078;12.108;2022-11-11T15:06:29;1.90;;;1.02;;
35699;SDS011;21818;51.078;12.108;2022-11-11T15:11:40;4.45;;;1.73;;
35699;SDS011;21818;51.078;12.108;2022-11-11T15:19:54;2.58;;;1.17;;
35699;SDS011;21818;51.078;12.108;2022-11-11T15:25:37;1.70;;;1.00;;
35699;SDS011;21818;51.078;12.108;2022-11-11T15:30:59;4.15;;;1.60;;
35699;SDS011;21818;51.078;12.108;2022-11-11T15:36:17;7.65;;;2.58;;
35699;SDS011;21818;51.078;12.108;2022-11-11T15:38:47;6.53;;;2.72;;
35699;SDS011;21818;51.078;12.108;2022-11-11T15:41:24;5.78;;;2.00;;
35699;SDS011;21818;51.078;12.108;2022-11-11T15:43:53;6.70;;;2.17;;
35699;SDS011;21818;51.078;12.108;2022-11-11T15:46:26;4.32;;;2.15;;
35699;SDS011;21818;51.078;12.108;2022-11-11T15:48:58;4.32;;;1.77;;
35699;SDS011;21818;51.078;12.108;2022-11-11T15:51:27;4.97;;;2.50;;
35699;SDS011;21818;51.078;12.108;2022-11-11T15:54:07;3.50;;;1.90;;
35699;SDS011;21818;51.078;12.108;2022-11-11T15:56:42;3.63;;;1.70;;
35699;SDS011;21818;51.078;12.108;2022-11-11T15:59:21;2.95;;;1.58;;
35699;SDS011;21818;51.078;12.108;2022-11-11T16:01:48;4.07;;;1.58;;
35699;SDS011;21818;51.078;12.108;2022-11-11T16:04:16;3.92;;;1.67;;
35699;SDS011;21818;51.078;12.108;2022-11-11T16:06:44;4.53;;;1.80;;
35699;SDS011;21818;51.078;12.108;2022-11-11T16:09:15;2.75;;;1.50;;
35699;SDS011;21818;51.078;12.108;2022-11-11T16:11:47;2.97;;;1.58;;
35699;SDS011;21818;51.078;12.108;2022-11-11T16:14:21;3.67;;;1.67;;
35699;SDS011;21818;51.078;12.108;2022-11-11T16:16:54;4.40;;;1.52;;
35699;SDS011;21818;51.078;12.108;2022-11-11T16:19:24;3.05;;;1.55;;
35699;SDS011;21818;51.078;12.108;2022-11-11T16:22:09;6.28;;;2.67;;
35699;SDS011;21818;51.078;12.108;2022-11-11T16:24:36;5.50;;;1.70;;
35699;SDS011;21818;51.078;12.108;2022-11-11T16:27:04;5.05;;;2.00;;
35699;SDS011;21818;51.078;12.108;2022-11-11T16:29:32;3.45;;;1.35;;
35699;SDS011;21818;51.078;12.108;2022-11-11T16:32:01;3.30;;;1.55;;
35699;SDS011;21818;51.078;12.108;2022-11-11T16:34:41;4.22;;;1.58;;
35699;SDS011;21818;51.078;12.108;2022-11-11T16:37:09;2.63;;;1.67;;
35699;SDS011;21818;51.078;12.108;2022-11-11T16:39:37;4.43;;;2.50;;
35699;SDS011;21818;51.078;12.108;2022-11-11T16:42:15;5.88;;;3.08;;
35699;SDS011;21818;51.078;12.108;2022-11-11T16:45:02;20.92;;;11.57;;
35699;SDS011;21818;51.078;12.108;2022-11-11T16:50:02;11.60;;;7.40;;
35699;SDS011;21818;51.078;12.108;2022-11-11T16:52:29;7.85;;;4.80;;
35699;SDS011;21818;51.078;12.108;2022-11-11T16:55:06;8.95;;;3.40;;
35699;SDS011;21818;51.078;12.108;2022-11-11T16:57:35;5.72;;;4.00;;
35699;SDS011;21818;51.078;12.108;2022-11-11T17:00:07;5.82;;;3.42;;
35699;SDS011;21818;51.078;12.108;2022-11-11T17:02:40;6.10;;;3.17;;
35699;SDS011;21818;51.078;12.108;2022-11-11T17:05:05;5.68;;;2.97;;
35699;SDS011;21818;51.078;12.108;2022-11-11T17:07:33;5.13;;;2.65;;
35699;SDS011;21818;51.078;12.108;2022-11-11T17:10:19;6.72;;;2.33;;
35699;SDS011;21818;51.078;12.108;2022-11-11T17:12:49;4.80;;;2.75;;
35699;SDS011;21818;51.078;12.108;2022-11-11T17:15:16;4.35;;;2.45;;
35699;SDS011;21818;51.078;12.108;2022-11-11T17:17:43;5.80;;;2.92;;
35699;SDS011;21818;51.078;12.108;2022-11-11T17:20:11;8.15;;;2.85;;
35699;SDS011;21818;51.078;12.108;2022-11-11T17:22:47;3.85;;;2.20;;
35699;SDS011;21818;51.078;12.108;2022-11-11T17:25:17;6.00;;;2.60;;
35699;SDS011;21818;51.078;12.108;2022-11-11T17:27:43;9.00;;;2.63;;
35699;SDS011;21818;51.078;12.108;2022-11-11T17:30:10;4.05;;;2.15;;
35699;SDS011;21818;51.078;12.108;2022-11-11T17:32:38;6.63;;;2.50;;